createdAt,value
2018-08-12T00:00:00.863Z,18.30
2018-08-12T00:02:28.064Z,18.20
2018-08-12T00:04:56.548Z,18.20
2018-08-12T00:07:24.376Z,18.10
2018-08-12T00:09:51.455Z,18.10
2018-08-12T00:14:46.342Z,18.00
2018-08-12T00:22:07.651Z,17.80
2018-08-12T00:24:34.626Z,17.70
2018-08-12T00:27:01.611Z,17.70
2018-08-12T00:29:28.576Z,17.80
2018-08-12T00:31:55.665Z,17.70
2018-08-12T00:34:22.793Z,17.50
2018-08-12T00:36:49.785Z,17.40
2018-08-12T01:30:47.996Z,17.20
2018-08-12T01:35:41.956Z,16.50
2018-08-12T01:38:08.917Z,16.10
2018-08-12T01:40:35.852Z,16.00
2018-08-12T01:43:02.808Z,16.00
2018-08-12T01:45:29.813Z,16.00
2018-08-12T01:47:56.821Z,15.90
2018-08-12T01:50:23.749Z,15.80
2018-08-12T01:52:50.968Z,15.80
2018-08-12T01:55:17.940Z,15.80
2018-08-12T01:57:44.990Z,15.80
2018-08-12T02:00:14.088Z,15.80
2018-08-12T02:02:41.057Z,15.80
2018-08-12T02:05:08.013Z,15.70
2018-08-12T02:07:34.954Z,15.80
2018-08-12T02:10:02.006Z,15.90
2018-08-12T02:12:28.932Z,15.70
2018-08-12T02:14:56.166Z,15.70
2018-08-12T02:17:23.150Z,15.60
2018-08-12T02:19:56.882Z,15.60
2018-08-12T02:22:23.857Z,15.70
2018-08-12T02:24:50.818Z,15.60
2018-08-12T02:27:17.755Z,15.60
2018-08-12T02:29:44.687Z,15.40
2018-08-12T02:32:11.618Z,15.40
2018-08-12T02:34:38.598Z,15.30
2018-08-12T02:37:05.673Z,15.30
2018-08-12T02:39:32.641Z,15.50
2018-08-12T02:41:59.997Z,15.50
2018-08-12T02:44:26.957Z,15.30
2018-08-12T02:46:53.982Z,15.30
2018-08-12T02:49:20.960Z,15.30
2018-08-12T02:51:47.885Z,15.50
2018-08-12T02:54:14.869Z,15.30
2018-08-12T02:56:41.969Z,15.10
2018-08-12T02:59:08.910Z,15.00
2018-08-12T03:01:35.877Z,15.10
2018-08-12T03:04:02.821Z,15.20
2018-08-12T03:06:29.764Z,15.40
2018-08-12T03:08:56.681Z,15.20
2018-08-12T03:11:24.055Z,15.30
2018-08-12T03:13:51.039Z,15.30
2018-08-12T03:16:17.979Z,15.30
2018-08-12T03:18:44.906Z,15.10
2018-08-12T03:21:11.869Z,15.00
2018-08-12T03:23:38.861Z,15.00
2018-08-12T03:26:05.833Z,15.30
2018-08-12T03:28:32.842Z,15.10
2018-08-12T03:30:59.808Z,15.10
2018-08-12T03:33:26.846Z,15.20
2018-08-12T03:35:53.763Z,14.90
2018-08-12T03:38:20.762Z,14.90
2018-08-12T03:40:47.988Z,14.70
2018-08-12T03:43:14.938Z,14.70
2018-08-12T03:45:41.898Z,14.90
2018-08-12T03:48:08.836Z,15.00
2018-08-12T03:50:35.761Z,15.20
2018-08-12T03:53:02.680Z,15.00
2018-08-12T03:55:29.989Z,15.00
2018-08-12T03:57:56.939Z,15.00
2018-08-12T04:00:23.915Z,15.00
2018-08-12T04:02:50.895Z,15.10
2018-08-12T04:05:18.221Z,15.10
2018-08-12T04:07:45.168Z,15.00
2018-08-12T04:10:12.124Z,14.80
2018-08-12T04:12:39.220Z,14.90
2018-08-12T04:15:07.522Z,15.00
2018-08-12T04:17:34.526Z,14.90
2018-08-12T04:20:01.474Z,15.10
2018-08-12T04:22:28.454Z,15.00
2018-08-12T04:24:55.393Z,15.20
2018-08-12T04:27:22.459Z,15.10
2018-08-12T04:29:49.753Z,15.20
2018-08-12T04:32:16.706Z,15.10
2018-08-12T04:34:43.649Z,15.00
2018-08-12T04:37:10.634Z,15.10
2018-08-12T04:39:37.586Z,15.10
2018-08-12T04:42:04.583Z,14.60
2018-08-12T04:44:31.541Z,15.00
2018-08-12T04:46:58.494Z,14.90
2018-08-12T04:49:25.495Z,14.70
2018-08-12T04:51:52.445Z,14.70
2018-08-12T04:54:19.380Z,14.90
2018-08-12T04:56:46.297Z,15.20
2018-08-12T04:59:13.551Z,15.30
2018-08-12T05:01:40.525Z,15.60
2018-08-12T05:04:07.470Z,15.40
2018-08-12T05:06:34.441Z,15.40
2018-08-12T05:09:01.415Z,15.60
2018-08-12T05:11:28.364Z,15.60
2018-08-12T05:13:55.397Z,15.60
2018-08-12T05:16:22.315Z,15.50
2018-08-12T05:18:49.290Z,15.90
2018-08-12T05:21:16.297Z,16.20
2018-08-12T05:23:43.254Z,16.60
2018-08-12T05:26:10.210Z,16.40
2018-08-12T05:28:37.173Z,16.60
2018-08-12T05:31:04.198Z,16.70
2018-08-12T05:33:31.178Z,16.60
2018-08-12T05:35:58.204Z,16.70
2018-08-12T05:38:25.117Z,16.90
2018-08-12T05:40:52.088Z,17.10
2018-08-12T05:43:19.026Z,17.30
2018-08-12T05:45:46.002Z,17.10
2018-08-12T05:48:12.939Z,17.30
2018-08-12T05:50:40.276Z,17.30
2018-08-12T05:53:07.198Z,17.20
2018-08-12T05:55:34.183Z,17.30
2018-08-12T05:58:01.196Z,17.60
2018-08-12T06:00:28.198Z,17.80
2018-08-12T06:02:55.225Z,18.00
2018-08-12T06:05:22.488Z,18.10
2018-08-12T06:07:49.467Z,18.10
2018-08-12T06:10:16.427Z,18.20
2018-08-12T06:12:43.479Z,18.40
2018-08-12T06:15:14.394Z,18.50
2018-08-12T06:17:41.322Z,18.60
2018-08-12T06:20:09.257Z,18.70
2018-08-12T06:22:36.212Z,18.70
2018-08-12T06:25:03.723Z,18.90
2018-08-12T06:27:30.722Z,19.50
2018-08-12T06:32:24.806Z,20.40
2018-08-12T06:34:51.775Z,21.30
2018-08-12T06:37:18.806Z,21.80
2018-08-12T06:39:45.820Z,21.50
2018-08-12T06:42:12.741Z,21.20
2018-08-12T06:44:39.751Z,22.00
2018-08-12T06:47:06.718Z,21.70
2018-08-12T06:49:33.701Z,22.10
2018-08-12T06:52:00.744Z,22.80
2018-08-12T06:54:27.642Z,23.20
2018-08-12T06:56:54.626Z,23.10
2018-08-12T06:59:21.623Z,24.00
2018-08-12T18:43:50.240Z,28.50
2018-08-12T18:46:17.292Z,23.50
2018-08-12T18:48:44.354Z,23.40
2018-08-12T18:51:11.481Z,23.60
2018-08-12T18:53:38.457Z,23.50
2018-08-12T18:56:05.633Z,23.50
2018-08-12T18:58:32.635Z,23.40
2018-08-12T19:00:59.848Z,23.40
2018-08-12T19:03:27.126Z,23.50
2018-08-12T19:05:54.254Z,23.40
2018-08-12T19:08:21.306Z,23.40
2018-08-12T19:10:48.288Z,23.20
2018-08-12T19:13:15.283Z,23.10
2018-08-12T19:15:42.261Z,23.10
2018-08-12T19:18:09.348Z,23.00
2018-08-12T19:20:36.361Z,22.80
2018-08-12T19:23:03.394Z,22.50
2018-08-12T19:25:30.368Z,22.40
2018-08-12T19:27:57.361Z,22.20
2018-08-12T19:30:24.386Z,22.20
2018-08-12T19:32:51.410Z,22.20
2018-08-12T19:35:18.418Z,22.30
2018-08-12T19:37:45.362Z,22.40
2018-08-12T19:40:12.361Z,22.60
2018-08-12T19:42:39.474Z,22.70
2018-08-12T19:45:07.283Z,22.70
2018-08-12T19:47:34.282Z,22.50
2018-08-12T19:54:55.526Z,22.20
2018-08-12T19:57:22.466Z,21.60
2018-08-12T19:59:49.473Z,21.40
2018-08-12T20:02:16.474Z,21.30
2018-08-12T20:04:43.480Z,21.20
2018-08-12T20:07:10.527Z,21.20
2018-08-12T20:09:37.488Z,21.30
2018-08-12T20:12:04.745Z,21.40
2018-08-12T20:14:31.514Z,21.60
2018-08-12T20:16:58.553Z,21.80
2018-08-12T20:19:25.944Z,21.80
2018-08-12T20:21:52.890Z,21.80
2018-08-12T20:24:19.885Z,21.70
2018-08-12T20:26:46.909Z,21.70
2018-08-12T20:29:14.914Z,21.60
2018-08-12T20:31:44.020Z,21.50
2018-08-12T20:34:11.111Z,21.50
2018-08-12T20:36:38.130Z,21.50
2018-08-12T20:39:07.384Z,21.50
2018-08-12T20:41:34.421Z,21.50
2018-08-12T20:44:01.490Z,21.50
2018-08-12T20:46:28.518Z,21.40
2018-08-12T20:48:55.539Z,21.40
2018-08-12T20:51:22.577Z,21.40
2018-08-12T20:53:49.606Z,21.40
2018-08-12T20:56:16.603Z,21.50
2018-08-12T20:58:43.589Z,21.60
2018-08-12T21:01:10.965Z,21.60
2018-08-12T21:03:37.937Z,21.50
2018-08-12T21:06:04.877Z,21.50
2018-08-12T21:08:32.030Z,21.40
2018-08-12T21:10:58.962Z,21.40
2018-08-12T21:13:25.942Z,21.40
2018-08-12T21:15:52.952Z,21.40
2018-08-12T21:18:19.893Z,21.50
2018-08-12T21:20:46.873Z,21.40
2018-08-12T21:23:14.162Z,21.40
2018-08-12T21:25:41.124Z,21.30
2018-08-12T21:28:08.125Z,21.20
2018-08-12T21:30:35.121Z,21.10
2018-08-12T21:33:02.071Z,21.00
2018-08-12T21:35:29.018Z,21.00
2018-08-12T21:37:56.056Z,21.00
2018-08-12T21:40:23.047Z,21.00
2018-08-12T21:42:50.026Z,20.80
2018-08-12T21:45:17.410Z,20.80
2018-08-12T21:47:44.363Z,20.80
2018-08-12T21:50:11.421Z,20.80
2018-08-12T21:52:38.464Z,20.70
2018-08-12T21:55:05.489Z,20.70
2018-08-12T21:57:32.468Z,20.70
2018-08-12T21:59:59.474Z,20.70
2018-08-12T22:02:26.462Z,20.60
2018-08-12T22:04:53.471Z,20.50
2018-08-12T22:07:20.473Z,20.50
2018-08-12T22:09:47.448Z,20.40
2018-08-12T22:12:14.479Z,20.30
2018-08-12T22:14:41.754Z,20.30
2018-08-12T22:17:08.796Z,20.30
2018-08-12T22:19:35.769Z,20.30
2018-08-12T22:22:02.781Z,20.30
2018-08-12T22:24:29.790Z,20.30
2018-08-12T22:26:56.805Z,20.20
2018-08-12T22:29:23.821Z,20.20
2018-08-12T22:31:50.862Z,20.10
2018-08-12T22:34:17.839Z,20.00
2018-08-12T22:36:45.069Z,20.00
2018-08-12T22:39:12.031Z,20.00
2018-08-12T22:41:39.058Z,19.80
2018-08-12T22:44:06.046Z,19.80
2018-08-12T22:46:32.968Z,19.70
2018-08-12T22:48:59.906Z,19.70
2018-08-12T22:51:26.878Z,19.60
2018-08-12T22:53:53.850Z,19.60
2018-08-12T22:56:20.877Z,19.60
2018-08-12T22:58:47.902Z,19.60
2018-08-12T23:01:14.844Z,19.60
2018-08-12T23:03:41.802Z,19.50
2018-08-12T23:06:08.868Z,19.50
2018-08-12T23:08:35.861Z,19.40
2018-08-12T23:11:02.886Z,19.30
2018-08-12T23:13:29.897Z,19.30
2018-08-12T23:16:11.351Z,19.20
2018-08-12T23:18:38.517Z,19.20
2018-08-12T23:21:05.659Z,19.20
2018-08-12T23:23:32.671Z,19.10
2018-08-12T23:25:59.667Z,19.10
2018-08-12T23:28:27.033Z,19.00
2018-08-12T23:30:54.050Z,19.00
2018-08-12T23:33:21.398Z,19.00
2018-08-12T23:35:48.775Z,18.90
2018-08-12T23:38:15.894Z,18.90
2018-08-12T23:40:42.959Z,18.90
2018-08-12T23:43:10.059Z,19.00
2018-08-12T23:45:37.131Z,19.00
2018-08-12T23:48:04.294Z,19.00
2018-08-12T23:50:31.263Z,19.00
2018-08-12T23:52:58.344Z,19.00
2018-08-12T23:55:25.344Z,19.00
2018-08-12T23:57:52.447Z,18.90
